createdAt,value
2018-08-31T00:02:17.716Z,83.08
2018-08-31T00:04:52.596Z,83.19
2018-08-31T00:07:31.458Z,83.15
2018-08-31T00:09:59.246Z,83.21
2018-08-31T00:12:28.865Z,83.22
2018-08-31T00:14:57.418Z,83.24
2018-08-31T00:17:25.738Z,83.81
2018-08-31T00:19:53.249Z,83.64
2018-08-31T00:22:21.864Z,83.40
2018-08-31T00:24:50.799Z,83.50
2018-08-31T00:27:26.050Z,84.08
2018-08-31T00:29:59.730Z,84.58
2018-08-31T00:32:29.980Z,84.83
2018-08-31T00:34:57.732Z,84.57
2018-08-31T00:37:26.572Z,84.37
2018-08-31T00:39:54.899Z,84.29
2018-08-31T00:42:23.828Z,84.09
2018-08-31T00:44:52.157Z,83.88
2018-08-31T00:47:19.931Z,83.76
2018-08-31T00:49:48.837Z,83.59
2018-08-31T00:52:16.597Z,83.28
2018-08-31T00:54:46.042Z,83.01
2018-08-31T00:57:14.292Z,82.74
2018-08-31T00:59:42.734Z,82.62
2018-08-31T01:02:10.468Z,82.15
2018-08-31T01:04:39.398Z,82.17
2018-08-31T01:07:07.732Z,82.29
2018-08-31T01:09:35.476Z,82.23
2018-08-31T01:12:03.811Z,82.27
2018-08-31T01:14:32.144Z,82.24
2018-08-31T01:17:01.293Z,82.07
2018-08-31T01:19:29.393Z,81.69
2018-08-31T01:21:57.729Z,81.40
2018-08-31T01:24:25.481Z,81.30
2018-08-31T01:26:55.024Z,81.53
2018-08-31T01:29:22.739Z,81.49
2018-08-31T01:31:50.489Z,81.30
2018-08-31T01:34:19.799Z,81.34
2018-08-31T01:36:47.717Z,81.68
2018-08-31T01:39:16.627Z,81.76
2018-08-31T01:41:44.386Z,81.54
2018-08-31T01:44:13.863Z,81.38
2018-08-31T01:46:41.956Z,81.06
2018-08-31T01:49:10.288Z,81.17
2018-08-31T01:51:38.623Z,81.29
2018-08-31T01:54:06.374Z,81.30
2018-08-31T01:56:35.730Z,81.50
2018-08-31T01:59:03.491Z,81.30
2018-08-31T02:01:32.628Z,81.23
2018-08-31T02:04:00.968Z,80.94
2018-08-31T02:06:30.213Z,80.74
2018-08-31T02:08:57.958Z,80.33
2018-08-31T02:11:26.307Z,80.31
2018-08-31T02:13:56.049Z,80.11
2018-08-31T02:16:24.376Z,79.93
2018-08-31T02:18:53.407Z,79.55
2018-08-31T02:21:21.155Z,79.58
2018-08-31T02:23:50.076Z,79.62
2018-08-31T02:26:17.815Z,79.56
2018-08-31T02:28:46.729Z,79.69
2018-08-31T02:31:14.491Z,79.67
2018-08-31T02:33:42.822Z,79.58
2018-08-31T02:36:11.740Z,79.47
2018-08-31T02:38:39.484Z,79.95
2018-08-31T02:41:08.393Z,79.83
2018-08-31T02:43:36.154Z,79.96
2018-08-31T02:46:05.062Z,80.00
2018-08-31T02:48:33.856Z,80.01
2018-08-31T02:51:02.185Z,79.87
2018-08-31T02:53:29.929Z,79.95
2018-08-31T02:55:59.124Z,80.03
2018-08-31T02:58:26.904Z,80.06
2018-08-31T03:00:56.086Z,79.93
2018-08-31T03:03:23.840Z,79.70
2018-08-31T03:05:53.005Z,79.70
2018-08-31T03:08:21.347Z,79.83
2018-08-31T03:10:49.299Z,79.84
2018-08-31T03:13:18.856Z,79.98
2018-08-31T03:15:46.621Z,80.14
2018-08-31T03:18:15.535Z,80.23
2018-08-31T03:20:43.866Z,80.25
2018-08-31T03:23:12.210Z,80.27
2018-08-31T03:25:40.556Z,80.30
2018-08-31T03:28:08.304Z,80.17
2018-08-31T03:30:36.645Z,80.27
2018-08-31T03:33:05.847Z,79.99
2018-08-31T03:35:34.183Z,79.90
2018-08-31T03:38:03.089Z,79.88
2018-08-31T03:40:30.840Z,79.63
2018-08-31T03:42:59.756Z,79.47
2018-08-31T03:45:28.948Z,79.48
2018-08-31T03:47:57.276Z,79.55
2018-08-31T03:50:25.024Z,79.87
2018-08-31T03:52:53.938Z,80.33
2018-08-31T03:55:22.396Z,80.75
2018-08-31T03:57:50.148Z,80.78
2018-08-31T04:00:19.089Z,80.77
2018-08-31T04:02:47.412Z,80.79
2018-08-31T04:05:15.757Z,80.69
2018-08-31T04:07:43.500Z,80.34
2018-08-31T04:10:13.314Z,80.11
2018-08-31T04:12:41.620Z,79.93
2018-08-31T04:15:09.406Z,79.91
2018-08-31T04:17:37.707Z,79.73
2018-08-31T04:20:05.453Z,79.46
2018-08-31T04:22:34.374Z,79.47
2018-08-31T04:25:03.207Z,79.18
2018-08-31T04:27:31.310Z,79.09
2018-08-31T04:29:59.206Z,78.87
2018-08-31T04:32:27.537Z,79.04
2018-08-31T04:34:55.863Z,79.16
2018-08-31T04:37:24.224Z,79.18
2018-08-31T04:39:53.106Z,79.01
2018-08-31T04:42:21.488Z,78.95
2018-08-31T04:44:49.820Z,78.69
2018-08-31T04:47:18.649Z,78.60
2018-08-31T04:49:46.178Z,78.61
2018-08-31T04:52:14.510Z,78.68
2018-08-31T04:54:43.027Z,78.59
2018-08-31T04:57:12.134Z,78.69
2018-08-31T04:59:40.821Z,78.62
2018-08-31T05:02:09.298Z,78.46
2018-08-31T05:04:37.990Z,78.31
2018-08-31T05:07:05.748Z,78.13
2018-08-31T05:09:35.115Z,78.17
2018-08-31T05:12:04.278Z,78.11
2018-08-31T05:14:32.023Z,78.15
2018-08-31T05:17:00.358Z,78.05
2018-08-31T05:19:29.272Z,77.96
2018-08-31T05:21:57.849Z,77.85
2018-08-31T05:24:26.410Z,77.83
2018-08-31T05:26:54.739Z,77.84
2018-08-31T05:29:22.497Z,77.93
2018-08-31T05:31:50.926Z,77.79
2018-08-31T05:34:20.418Z,77.61
2018-08-31T05:36:48.754Z,78.06
2018-08-31T05:39:16.505Z,78.06
2018-08-31T05:41:45.407Z,77.97
2018-08-31T05:44:13.739Z,78.30
2018-08-31T05:46:42.066Z,78.38
2018-08-31T05:49:10.394Z,78.58
2018-08-31T05:51:38.742Z,78.31
2018-08-31T05:54:07.075Z,78.31
2018-08-31T05:56:34.832Z,78.31
2018-08-31T05:59:03.991Z,78.26
2018-08-31T06:01:32.315Z,78.25
2018-08-31T06:04:02.455Z,78.19
2018-08-31T06:06:29.239Z,77.53
2018-08-31T06:08:56.987Z,77.44
2018-08-31T06:11:25.337Z,77.47
2018-08-31T06:13:53.881Z,77.54
2018-08-31T06:16:22.002Z,77.03
2018-08-31T06:18:50.926Z,76.87
2018-08-31T06:21:19.582Z,77.26
2018-08-31T06:23:47.905Z,77.21
2018-08-31T06:26:17.243Z,77.14
2018-08-31T06:28:45.313Z,77.34
2018-08-31T06:31:14.221Z,77.40
2018-08-31T06:33:42.587Z,77.36
2018-08-31T06:36:10.285Z,76.99
2018-08-31T06:38:38.626Z,77.17
2018-08-31T06:41:06.954Z,77.19
2018-08-31T06:43:35.888Z,77.27
2018-08-31T06:46:03.638Z,77.35
2018-08-31T06:48:32.547Z,77.33
2018-08-31T06:51:00.877Z,76.75
2018-08-31T06:53:28.615Z,76.32
2018-08-31T06:55:57.788Z,76.04
2018-08-31T06:58:26.096Z,75.82
2018-08-31T07:00:54.089Z,74.00
2018-08-31T07:03:22.818Z,73.97
2018-08-31T07:05:51.624Z,73.82
2018-08-31T07:08:19.952Z,73.25
2018-08-31T07:10:47.706Z,73.46
2018-08-31T07:13:16.661Z,72.49
2018-08-31T07:15:44.392Z,72.80
2018-08-31T07:18:13.703Z,72.47
2018-08-31T07:20:41.615Z,71.20
2018-08-31T07:23:10.486Z,70.23
2018-08-31T07:25:38.814Z,70.63
2018-08-31T07:28:07.130Z,70.72
2018-08-31T07:30:35.454Z,71.02
2018-08-31T07:33:03.194Z,70.97
2018-08-31T07:35:32.338Z,70.71
2018-08-31T07:38:00.437Z,70.85
2018-08-31T07:40:28.750Z,70.58
2018-08-31T07:42:57.127Z,70.42
2018-08-31T07:45:25.793Z,70.29
2018-08-31T07:47:54.205Z,69.86
2018-08-31T07:50:21.901Z,69.87
2018-08-31T07:52:50.800Z,69.78
2018-08-31T07:55:19.125Z,69.89
2018-08-31T07:57:47.454Z,70.33
2018-08-31T08:00:15.772Z,69.96
2018-08-31T08:02:44.107Z,68.85
2018-08-31T08:05:12.439Z,67.61
2018-08-31T08:07:40.915Z,68.19
2018-08-31T08:10:10.637Z,67.49
2018-08-31T08:12:38.965Z,67.88
2018-08-31T08:15:07.630Z,67.79
2018-08-31T08:17:35.994Z,67.74
2018-08-31T08:20:05.321Z,67.00
2018-08-31T08:22:33.624Z,66.97
2018-08-31T08:25:02.871Z,67.43
2018-08-31T08:27:31.565Z,67.21
2018-08-31T08:29:59.286Z,67.57
2018-08-31T08:32:29.775Z,67.21
2018-08-31T08:34:56.925Z,66.96
2018-08-31T08:37:25.879Z,67.01
2018-08-31T08:39:54.461Z,66.45
2018-08-31T08:42:23.709Z,66.29
2018-08-31T08:44:51.775Z,65.16
2018-08-31T08:47:20.184Z,65.20
2018-08-31T08:49:49.377Z,64.92
2018-08-31T08:52:17.701Z,64.64
2018-08-31T08:54:45.453Z,65.07
2018-08-31T09:00:26.121Z,63.83
2018-08-31T09:02:54.528Z,63.41
2018-08-31T09:05:23.426Z,63.02
2018-08-31T09:07:51.248Z,62.85
2018-08-31T09:10:20.167Z,61.88
2018-08-31T09:13:15.677Z,62.30
2018-08-31T09:15:44.023Z,62.81
2018-08-31T09:18:12.637Z,62.75
2018-08-31T09:20:41.321Z,62.88
2018-08-31T09:23:08.471Z,63.25
2018-08-31T09:25:37.388Z,63.54
2018-08-31T09:28:05.868Z,63.49
2018-08-31T09:30:34.971Z,63.78
2018-08-31T09:33:03.805Z,64.01
2018-08-31T09:35:32.234Z,63.91
2018-08-31T09:38:00.604Z,63.99
2018-08-31T09:40:31.100Z,64.19
2018-08-31T09:42:59.547Z,64.87
2018-08-31T09:45:26.455Z,65.31
2018-08-31T09:47:54.434Z,65.09
2018-08-31T09:50:23.330Z,64.92
2018-08-31T09:52:51.911Z,65.00
2018-08-31T09:55:20.243Z,65.29
2018-08-31T09:57:48.565Z,65.96
2018-08-31T10:00:17.229Z,66.17
2018-08-31T10:02:45.540Z,66.54
2018-08-31T10:05:13.857Z,67.25
2018-08-31T10:07:43.062Z,67.72
2018-08-31T10:10:11.361Z,68.03
2018-08-31T10:12:40.944Z,68.02
2018-08-31T10:15:09.049Z,67.88
2018-08-31T10:17:38.537Z,68.19
2018-08-31T10:20:06.858Z,68.39
2018-08-31T10:22:34.991Z,68.74
2018-08-31T10:25:03.317Z,70.12
2018-08-31T10:27:32.441Z,70.99
2018-08-31T10:30:01.404Z,71.47
2018-08-31T10:32:29.912Z,72.74
2018-08-31T10:34:58.820Z,73.23
2018-08-31T10:37:26.564Z,73.89
2018-08-31T10:39:54.928Z,75.01
2018-08-31T10:42:23.838Z,75.59
2018-08-31T10:44:51.592Z,75.54
2018-08-31T10:47:19.920Z,75.78
2018-08-31T10:49:49.105Z,75.69
2018-08-31T10:52:16.846Z,76.84
2018-08-31T10:54:45.744Z,78.01
2018-08-31T10:57:13.509Z,78.47
2018-08-31T10:59:42.193Z,80.33
2018-08-31T11:02:10.518Z,80.08
2018-08-31T11:04:39.426Z,80.00
2018-08-31T11:07:07.169Z,80.43
2018-08-31T11:09:35.526Z,80.89
2018-08-31T11:12:04.436Z,81.26
2018-08-31T11:14:32.767Z,80.48
2018-08-31T11:17:00.501Z,80.22
2018-08-31T11:19:29.412Z,79.56
2018-08-31T11:21:58.087Z,79.70
2018-08-31T11:24:26.408Z,79.02
2018-08-31T11:26:54.462Z,78.24
2018-08-31T11:29:23.364Z,78.40
2018-08-31T11:31:52.441Z,77.97
2018-08-31T11:34:21.669Z,77.20
2018-08-31T11:36:50.782Z,77.13
2018-08-31T11:39:19.117Z,75.00
2018-08-31T11:41:47.686Z,75.11
2018-08-31T11:44:16.030Z,73.80
2018-08-31T11:46:44.349Z,72.46
2018-08-31T11:49:12.667Z,72.95
2018-08-31T11:51:40.991Z,72.31
2018-08-31T11:54:08.734Z,71.60
2018-08-31T11:56:38.255Z,71.02
2018-08-31T11:59:06.200Z,70.85
2018-08-31T12:01:34.028Z,70.00
2018-08-31T12:04:02.267Z,68.99
2018-08-31T12:06:31.172Z,68.55
2018-08-31T12:08:59.488Z,68.67
2018-08-31T12:11:27.263Z,68.33
2018-08-31T12:13:55.743Z,67.65
2018-08-31T12:16:24.196Z,68.04
2018-08-31T12:18:52.377Z,66.04
2018-08-31T12:21:21.875Z,65.30
2018-08-31T12:23:49.977Z,65.55
2018-08-31T12:26:17.718Z,65.80
2018-08-31T12:28:46.627Z,65.46
2018-08-31T12:31:14.955Z,66.17
2018-08-31T12:33:42.695Z,66.84
2018-08-31T12:36:11.602Z,66.84
2018-08-31T12:38:39.943Z,67.18
2018-08-31T12:41:07.696Z,67.02
2018-08-31T12:43:36.618Z,67.35
2018-08-31T12:46:04.365Z,66.19
2018-08-31T12:48:33.290Z,66.35
2018-08-31T12:51:01.607Z,65.89
2018-08-31T12:53:29.925Z,65.94
2018-08-31T12:55:57.726Z,65.53
2018-08-31T12:58:26.648Z,65.82
2018-08-31T13:00:54.957Z,65.82
2018-08-31T13:03:23.287Z,65.87
2018-08-31T13:05:51.614Z,66.10
2018-08-31T13:08:19.361Z,64.28
2018-08-31T13:10:48.269Z,63.85
2018-08-31T13:13:16.057Z,63.74
2018-08-31T13:15:44.543Z,64.73
2018-08-31T13:18:13.434Z,65.11
2018-08-31T13:20:42.182Z,65.68
2018-08-31T13:23:09.921Z,65.69
2018-08-31T13:25:40.464Z,65.51
2018-08-31T13:28:08.808Z,64.16
2018-08-31T13:30:37.139Z,64.11
2018-08-31T13:33:04.891Z,63.96
2018-08-31T13:35:33.256Z,63.03
2018-08-31T13:38:02.311Z,62.09
2018-08-31T13:40:30.500Z,62.40
2018-08-31T13:42:58.818Z,61.51
2018-08-31T13:45:26.563Z,61.97
2018-08-31T13:47:55.503Z,62.17
2018-08-31T13:50:23.254Z,61.57
2018-08-31T13:52:51.572Z,59.90
2018-08-31T13:55:20.479Z,60.01
2018-08-31T13:57:48.809Z,59.65
2018-08-31T14:00:18.230Z,60.53
2018-08-31T14:02:47.184Z,61.29
2018-08-31T14:05:14.926Z,62.26
2018-08-31T14:07:43.288Z,62.63
2018-08-31T14:10:12.218Z,61.90
2018-08-31T14:12:40.556Z,62.00
2018-08-31T14:15:10.361Z,62.27
2018-08-31T14:17:42.632Z,62.72
2018-08-31T14:20:11.002Z,62.99
2018-08-31T14:22:38.755Z,62.05
2018-08-31T14:25:07.687Z,61.75
2018-08-31T14:27:35.425Z,62.65
2018-08-31T14:30:05.158Z,62.78
2018-08-31T14:32:33.376Z,62.26
2018-08-31T14:35:02.216Z,61.83
2018-08-31T14:37:30.565Z,60.91
2018-08-31T14:40:00.107Z,59.29
2018-08-31T14:42:29.179Z,58.88
2018-08-31T14:44:57.058Z,57.95
2018-08-31T14:47:25.481Z,56.57
2018-08-31T14:49:54.598Z,57.03
2018-08-31T14:52:23.709Z,54.95
2018-08-31T14:54:52.423Z,54.12
2018-08-31T14:57:21.302Z,55.27
2018-08-31T14:59:50.675Z,55.35
2018-08-31T15:02:18.992Z,55.50
2018-08-31T15:04:47.578Z,55.83
2018-08-31T15:07:16.573Z,56.09
2018-08-31T15:09:43.768Z,55.78
2018-08-31T15:12:12.611Z,57.06
2018-08-31T15:14:40.930Z,56.87
2018-08-31T15:17:09.902Z,56.39
2018-08-31T15:19:38.242Z,56.48
2018-08-31T15:22:06.596Z,56.12
2018-08-31T15:24:35.421Z,56.27
2018-08-31T15:27:03.744Z,56.46
2018-08-31T15:29:32.956Z,56.22
2018-08-31T15:32:01.275Z,56.49
2018-08-31T15:34:29.601Z,56.89
2018-08-31T15:36:58.030Z,57.87
2018-08-31T15:39:27.237Z,58.24
2018-08-31T15:41:54.904Z,59.33
2018-08-31T15:44:22.653Z,59.78
2018-08-31T15:46:51.557Z,60.16
2018-08-31T15:49:19.883Z,60.38
2018-08-31T15:51:47.875Z,60.43
2018-08-31T15:54:20.253Z,60.28
2018-08-31T15:56:48.031Z,59.28
2018-08-31T15:59:17.444Z,59.65
2018-08-31T16:01:45.817Z,59.41
2018-08-31T16:04:14.288Z,59.05
2018-08-31T16:06:42.063Z,58.84
2018-08-31T16:09:13.164Z,59.13
2018-08-31T16:11:40.924Z,59.21
2018-08-31T16:14:09.251Z,59.20
2018-08-31T16:16:38.364Z,59.57
2018-08-31T16:19:07.023Z,59.88
2018-08-31T16:21:35.295Z,59.86
2018-08-31T16:24:03.630Z,59.92
2018-08-31T16:26:31.953Z,60.15
2018-08-31T16:29:00.295Z,60.33
2018-08-31T16:31:29.235Z,60.58
2018-08-31T16:33:56.785Z,60.55
2018-08-31T16:36:26.063Z,60.80
2018-08-31T16:38:54.875Z,60.61
2018-08-31T16:41:23.115Z,60.60
2018-08-31T16:43:51.727Z,60.76
2018-08-31T16:46:19.469Z,61.20
2018-08-31T16:48:47.793Z,61.47
2018-08-31T16:51:16.715Z,61.85
2018-08-31T16:53:45.047Z,62.05
2018-08-31T16:56:12.790Z,62.39
2018-08-31T16:58:41.684Z,62.47
2018-08-31T17:01:10.009Z,62.72
2018-08-31T17:03:37.748Z,63.40
2018-08-31T17:06:06.676Z,63.42
2018-08-31T17:08:35.007Z,63.52
2018-08-31T17:11:02.783Z,63.61
2018-08-31T17:13:31.719Z,63.67
2018-08-31T17:16:00.662Z,63.78
2018-08-31T17:18:28.614Z,63.92
2018-08-31T17:20:57.001Z,64.10
2018-08-31T17:23:25.339Z,64.39
2018-08-31T17:25:53.661Z,64.41
2018-08-31T17:28:22.339Z,64.51
2018-08-31T17:30:51.993Z,64.68
2018-08-31T17:33:25.051Z,64.99
2018-08-31T17:35:55.932Z,64.97
2018-08-31T17:38:23.684Z,65.16
2018-08-31T17:40:52.613Z,65.04
2018-08-31T17:43:21.659Z,65.33
2018-08-31T17:45:49.983Z,65.54
2018-08-31T17:48:18.318Z,65.67
2018-08-31T17:50:46.660Z,65.85
2018-08-31T17:53:14.425Z,65.97
2018-08-31T17:55:42.772Z,66.16
2018-08-31T17:58:11.184Z,66.45
2018-08-31T18:00:39.460Z,66.62
2018-08-31T18:03:08.290Z,66.83
2018-08-31T18:05:37.218Z,67.04
2018-08-31T18:08:05.546Z,67.51
2018-08-31T18:10:33.878Z,67.76
2018-08-31T18:13:02.208Z,68.04
2018-08-31T18:15:30.673Z,68.34
2018-08-31T18:17:59.034Z,68.42
2018-08-31T18:20:27.406Z,68.56
2018-08-31T18:22:55.240Z,68.72
2018-08-31T18:25:24.097Z,69.16
2018-08-31T18:27:52.516Z,69.72
2018-08-31T18:30:20.862Z,69.79
2018-08-31T18:32:49.233Z,69.88
2018-08-31T18:35:16.985Z,70.15
2018-08-31T18:37:45.940Z,70.26
2018-08-31T18:40:14.336Z,70.26
2018-08-31T18:42:42.754Z,70.57
2018-08-31T18:45:11.091Z,70.84
2018-08-31T18:47:39.658Z,70.88
2018-08-31T18:50:07.237Z,70.97
2018-08-31T18:52:36.285Z,71.31
2018-08-31T18:55:04.547Z,71.26
2018-08-31T18:57:33.132Z,71.62
2018-08-31T19:00:01.233Z,72.08
2018-08-31T19:02:29.580Z,71.78
2018-08-31T19:04:58.005Z,71.82
2018-08-31T19:07:26.373Z,71.93
2018-08-31T19:09:54.194Z,72.22
2018-08-31T19:12:23.043Z,72.11
2018-08-31T19:14:51.404Z,72.32
2018-08-31T19:17:19.162Z,72.39
2018-08-31T19:19:47.572Z,72.51
2018-08-31T19:22:16.974Z,72.75
2018-08-31T19:24:45.355Z,72.82
2018-08-31T19:27:13.706Z,72.82
2018-08-31T19:29:42.069Z,72.87
2018-08-31T19:32:09.845Z,72.81
2018-08-31T19:34:38.756Z,72.86
2018-08-31T19:37:08.682Z,73.22
2018-08-31T19:39:36.022Z,73.35
2018-08-31T19:42:03.788Z,73.32
2018-08-31T19:44:32.132Z,73.48
2018-08-31T19:47:00.489Z,73.55
2018-08-31T19:49:28.838Z,73.64
2018-08-31T19:51:57.436Z,73.82
2018-08-31T19:54:25.830Z,73.98
2018-08-31T19:56:53.985Z,73.79
2018-08-31T19:59:21.739Z,73.88
2018-08-31T20:01:50.838Z,74.07
2018-08-31T20:04:18.590Z,74.38
2018-08-31T20:06:47.500Z,74.67
2018-08-31T20:09:15.250Z,74.81
2018-08-31T20:11:44.179Z,74.71
2018-08-31T20:14:12.538Z,74.86
2018-08-31T20:16:41.102Z,75.12
2018-08-31T20:19:09.229Z,75.44
2018-08-31T20:21:37.786Z,75.28
2018-08-31T20:26:34.295Z,75.46
2018-08-31T20:29:02.617Z,75.52
2018-08-31T20:31:30.964Z,75.58
2018-08-31T20:33:59.302Z,76.33
2018-08-31T20:36:27.050Z,75.84
2018-08-31T20:38:56.017Z,76.29
2018-08-31T20:41:24.391Z,76.16
2018-08-31T20:43:52.697Z,76.07
2018-08-31T20:46:21.795Z,76.25
2018-08-31T20:48:49.558Z,76.18
2018-08-31T20:51:18.458Z,76.51
2018-08-31T20:53:46.832Z,76.53
2018-08-31T20:56:15.167Z,76.75
2018-08-31T20:58:44.520Z,77.10
2018-08-31T21:01:12.272Z,77.12
2018-08-31T21:03:41.183Z,77.56
2018-08-31T21:06:09.513Z,77.37
2018-08-31T21:08:37.874Z,77.40
2018-08-31T21:11:06.768Z,77.18
2018-08-31T21:13:35.091Z,77.16
2018-08-31T21:16:02.864Z,77.34
2018-08-31T21:18:31.771Z,77.47
2018-08-31T21:21:00.144Z,77.46
2018-08-31T21:23:28.481Z,77.50
2018-08-31T21:25:56.812Z,77.59
2018-08-31T21:28:25.703Z,77.47
2018-08-31T21:30:54.030Z,77.84
2018-08-31T21:33:22.354Z,77.59
2018-08-31T21:35:51.279Z,77.95
2018-08-31T21:38:18.433Z,77.77
2018-08-31T21:40:47.336Z,78.10
2018-08-31T21:43:15.098Z,78.10
2018-08-31T21:45:43.524Z,78.21
2018-08-31T21:48:11.767Z,78.57
2018-08-31T21:50:40.668Z,78.75
2018-08-31T21:53:08.999Z,78.98
2018-08-31T21:55:37.324Z,78.83
2018-08-31T21:58:05.654Z,78.93
2018-08-31T22:00:42.181Z,79.09
2018-08-31T22:03:22.396Z,78.99
2018-08-31T22:05:48.177Z,79.14
2018-08-31T22:08:16.561Z,79.30
2018-08-31T22:10:44.827Z,79.28
2018-08-31T22:13:13.743Z,79.54
2018-08-31T22:15:42.061Z,79.68
2018-08-31T22:18:10.385Z,79.67
2018-08-31T22:20:38.705Z,79.81
2018-08-31T22:23:07.021Z,79.89
2018-08-31T22:25:35.351Z,80.04
2018-08-31T22:28:03.696Z,80.34
2018-08-31T22:30:32.069Z,80.33
2018-08-31T22:32:59.847Z,80.61
2018-08-31T22:35:28.775Z,80.67
2018-08-31T22:37:56.569Z,80.82
2018-08-31T22:40:25.104Z,80.84
2018-08-31T22:42:53.192Z,80.88
2018-08-31T22:45:22.103Z,80.86
2018-08-31T22:47:50.434Z,80.85
2018-08-31T22:50:18.763Z,80.91
2018-08-31T22:52:47.111Z,80.85
2018-08-31T22:55:15.182Z,80.93
2018-08-31T22:57:43.764Z,81.04
2018-08-31T23:00:11.509Z,81.21
2018-08-31T23:02:40.410Z,81.24
2018-08-31T23:05:08.157Z,81.18
2018-08-31T23:07:36.498Z,81.21
2018-08-31T23:10:05.451Z,81.37
2018-08-31T23:12:33.196Z,81.48
2018-08-31T23:15:02.102Z,81.25
2018-08-31T23:17:29.853Z,81.31
2018-08-31T23:19:58.178Z,81.42
2018-08-31T23:22:27.081Z,81.49
2018-08-31T23:24:54.849Z,81.74
2018-08-31T23:27:23.766Z,81.84
2018-08-31T23:29:51.513Z,81.88
2018-08-31T23:32:20.460Z,81.53
2018-08-31T23:34:48.317Z,81.82
2018-08-31T23:37:17.120Z,81.86
2018-08-31T23:39:45.449Z,81.80
2018-08-31T23:42:13.781Z,81.85
2018-08-31T23:44:42.113Z,82.05
2018-08-31T23:47:10.443Z,82.11
2018-08-31T23:49:38.504Z,82.37
2018-08-31T23:52:08.049Z,82.21
2018-08-31T23:54:35.059Z,82.29
2018-08-31T23:57:03.403Z,82.16
2018-08-31T23:59:32.536Z,82.20
